BAW4MA EGKK-EGFF
Flight info
| Callsign | BAW4MA |
|---|---|
| Flight time | 0h 29m |
| Altitude | 18000 |
| Route | KENET DCT SAWPE |
| Aircraft | A319/M-SDE3FGHIRWY/LB1 |
Departure
| Time | 2026-05-04 13:24 |
|---|---|
| Airport | London Gatwick Airport (EGKK) |
Arrival
| Time | 2026-05-04 13:53 |
|---|---|
| Airport | Cardiff International Airport (EGFF) |
| Time | Latitude | Longitude | Altitude | Speed | Heading |
|---|---|---|---|---|---|
| 2026-05-04 13:03 | 51.14754 | -0.17489 | 214 ft | 0 kts | 273° |
| 2026-05-04 13:17 | 51.14754 | -0.17486 | 205 ft | 0 kts | 273° |
| 2026-05-04 13:18 | 51.14754 | -0.17487 | 205 ft | 1 kts | 272° |
| 2026-05-04 13:18 | 51.14748 | -0.17491 | 205 ft | 1 kts | 211° |
| 2026-05-04 13:18 | 51.14748 | -0.17461 | 215 ft | 6 kts | 80° |
| 2026-05-04 13:19 | 51.14787 | -0.17437 | 205 ft | 10 kts | 336° |
| 2026-05-04 13:19 | 51.14800 | -0.17574 | 205 ft | 17 kts | 276° |
| 2026-05-04 13:19 | 51.14881 | -0.17687 | 209 ft | 4 kts | 343° |
| 2026-05-04 13:19 | 51.14887 | -0.17690 | 206 ft | 0 kts | 344° |
| 2026-05-04 13:22 | 51.14923 | -0.17705 | 211 ft | 11 kts | 346° |
| 2026-05-04 13:23 | 51.14996 | -0.17716 | 211 ft | 7 kts | 53° |
| 2026-05-04 13:23 | 51.15000 | -0.17694 | 211 ft | 0 kts | 76° |
| 2026-05-04 13:23 | 51.15036 | -0.17431 | 210 ft | 79 kts | 77° |
| 2026-05-04 13:23 | 51.15223 | -0.16078 | 575 ft | 142 kts | 76° |
| 2026-05-04 13:24 | 51.15454 | -0.14487 | 1577 ft | 153 kts | 77° |
| 2026-05-04 13:24 | 51.15697 | -0.12727 | 2110 ft | 174 kts | 78° |
| 2026-05-04 13:24 | 51.15955 | -0.10702 | 2634 ft | 201 kts | 78° |
| 2026-05-04 13:25 | 51.17569 | -0.06326 | 3077 ft | 260 kts | 25° |
| 2026-05-04 13:25 | 51.19372 | -0.05996 | 4247 ft | 265 kts | 353° |
| 2026-05-04 13:25 | 51.21159 | -0.06749 | 5609 ft | 271 kts | 331° |
| 2026-05-04 13:25 | 51.22484 | -0.08866 | 6859 ft | 276 kts | 296° |
| 2026-05-04 13:26 | 51.22882 | -0.11839 | 8106 ft | 279 kts | 267° |
| 2026-05-04 13:26 | 51.22605 | -0.14904 | 9438 ft | 281 kts | 255° |
| 2026-05-04 13:26 | 51.22082 | -0.17944 | 10478 ft | 293 kts | 252° |
| 2026-05-04 13:26 | 51.21475 | -0.21192 | 11063 ft | 318 kts | 252° |
| 2026-05-04 13:27 | 51.20861 | -0.24721 | 11615 ft | 340 kts | 254° |
| 2026-05-04 13:27 | 51.20293 | -0.28449 | 12496 ft | 348 kts | 256° |
| 2026-05-04 13:27 | 51.19809 | -0.32120 | 14125 ft | 330 kts | 257° |
| 2026-05-04 13:27 | 51.19384 | -0.35644 | 15552 ft | 322 kts | 257° |
| 2026-05-04 13:28 | 51.18969 | -0.39219 | 16329 ft | 336 kts | 257° |
| 2026-05-04 13:28 | 51.18531 | -0.43000 | 16707 ft | 359 kts | 257° |
| 2026-05-04 13:28 | 51.18062 | -0.47004 | 16940 ft | 372 kts | 257° |
| 2026-05-04 13:28 | 51.17561 | -0.51116 | 17016 ft | 390 kts | 255° |
| 2026-05-04 13:29 | 51.16721 | -0.55354 | 17025 ft | 411 kts | 247° |
| 2026-05-04 13:29 | 51.15652 | -0.59609 | 17023 ft | 414 kts | 246° |
| 2026-05-04 13:29 | 51.14552 | -0.63901 | 17026 ft | 421 kts | 246° |
| 2026-05-04 13:29 | 51.13439 | -0.68226 | 17025 ft | 423 kts | 246° |
| 2026-05-04 13:30 | 51.12322 | -0.72565 | 17023 ft | 423 kts | 246° |
| 2026-05-04 13:30 | 51.11293 | -0.76948 | 17016 ft | 425 kts | 253° |
| 2026-05-04 13:30 | 51.11002 | -0.81634 | 17025 ft | 429 kts | 271° |
| 2026-05-04 13:30 | 51.11515 | -0.86330 | 17028 ft | 432 kts | 281° |
| 2026-05-04 13:31 | 51.12174 | -0.90991 | 17021 ft | 432 kts | 281° |
| 2026-05-04 13:31 | 51.12836 | -0.95654 | 17040 ft | 432 kts | 281° |
| 2026-05-04 13:31 | 51.13278 | -0.98733 | 17030 ft | 432 kts | 281° |
| 2026-05-04 13:31 | 51.13948 | -1.03390 | 17028 ft | 431 kts | 281° |
| 2026-05-04 13:32 | 51.14619 | -1.08048 | 17024 ft | 431 kts | 281° |
| 2026-05-04 13:32 | 51.15288 | -1.12702 | 17020 ft | 431 kts | 281° |
| 2026-05-04 13:32 | 51.15956 | -1.17357 | 17020 ft | 431 kts | 281° |
| 2026-05-04 13:32 | 51.16625 | -1.22019 | 17021 ft | 432 kts | 281° |
| 2026-05-04 13:33 | 51.17293 | -1.26680 | 17003 ft | 432 kts | 281° |
| 2026-05-04 13:33 | 51.17959 | -1.31332 | 17005 ft | 432 kts | 281° |
| 2026-05-04 13:33 | 51.18628 | -1.36004 | 17008 ft | 432 kts | 281° |
| 2026-05-04 13:33 | 51.19295 | -1.40674 | 17007 ft | 432 kts | 281° |
| 2026-05-04 13:34 | 51.19960 | -1.45337 | 17012 ft | 432 kts | 281° |
| 2026-05-04 13:34 | 51.20621 | -1.50005 | 17013 ft | 432 kts | 281° |
| 2026-05-04 13:34 | 51.21282 | -1.54680 | 17014 ft | 432 kts | 281° |
| 2026-05-04 13:34 | 51.21942 | -1.59356 | 17015 ft | 432 kts | 281° |
| 2026-05-04 13:35 | 51.22603 | -1.64041 | 17018 ft | 432 kts | 281° |
| 2026-05-04 13:35 | 51.23920 | -1.73400 | 17017 ft | 432 kts | 281° |
| 2026-05-04 13:35 | 51.24576 | -1.78074 | 17018 ft | 432 kts | 281° |
| 2026-05-04 13:36 | 51.25233 | -1.82760 | 17017 ft | 432 kts | 281° |
| 2026-05-04 13:36 | 51.25889 | -1.87442 | 17019 ft | 433 kts | 281° |
| 2026-05-04 13:36 | 51.26547 | -1.92143 | 17044 ft | 433 kts | 281° |
| 2026-05-04 13:36 | 51.27189 | -1.96834 | 17040 ft | 433 kts | 281° |
| 2026-05-04 13:37 | 51.27830 | -2.01534 | 17041 ft | 433 kts | 281° |
| 2026-05-04 13:37 | 51.28467 | -2.06242 | 17038 ft | 434 kts | 281° |
| 2026-05-04 13:37 | 51.29106 | -2.10948 | 17041 ft | 434 kts | 281° |
| 2026-05-04 13:37 | 51.29743 | -2.15648 | 17042 ft | 434 kts | 281° |
| 2026-05-04 13:38 | 51.30381 | -2.20362 | 17038 ft | 434 kts | 281° |
| 2026-05-04 13:38 | 51.31018 | -2.25077 | 17045 ft | 434 kts | 281° |
| 2026-05-04 13:38 | 51.31653 | -2.29794 | 17049 ft | 434 kts | 281° |
| 2026-05-04 13:38 | 51.32285 | -2.34512 | 17053 ft | 433 kts | 281° |
| 2026-05-04 13:39 | 51.32913 | -2.39217 | 17059 ft | 433 kts | 280° |
| 2026-05-04 13:39 | 51.33544 | -2.43933 | 17056 ft | 433 kts | 280° |
| 2026-05-04 13:39 | 51.34175 | -2.48647 | 17051 ft | 433 kts | 280° |
| 2026-05-04 13:39 | 51.34796 | -2.53285 | 17025 ft | 415 kts | 280° |
| 2026-05-04 13:40 | 51.35385 | -2.57656 | 17030 ft | 392 kts | 280° |
| 2026-05-04 13:40 | 51.35958 | -2.61881 | 17030 ft | 387 kts | 280° |
| 2026-05-04 13:40 | 51.36528 | -2.66085 | 17030 ft | 385 kts | 280° |
| 2026-05-04 13:40 | 51.37090 | -2.70241 | 16569 ft | 379 kts | 280° |
| 2026-05-04 13:41 | 51.37642 | -2.74336 | 15869 ft | 375 kts | 280° |
| 2026-05-04 13:41 | 51.38192 | -2.78400 | 15141 ft | 372 kts | 280° |
| 2026-05-04 13:41 | 51.38737 | -2.82417 | 14394 ft | 367 kts | 280° |
| 2026-05-04 13:42 | 51.39809 | -2.90329 | 12808 ft | 361 kts | 280° |
| 2026-05-04 13:42 | 51.40329 | -2.94224 | 12069 ft | 353 kts | 280° |
| 2026-05-04 13:42 | 51.40831 | -2.97957 | 11470 ft | 332 kts | 280° |
| 2026-05-04 13:42 | 51.41307 | -3.01475 | 10972 ft | 314 kts | 280° |
| 2026-05-04 13:43 | 51.41765 | -3.04813 | 10479 ft | 300 kts | 280° |
| 2026-05-04 13:43 | 51.42195 | -3.07981 | 10011 ft | 291 kts | 280° |
| 2026-05-04 13:43 | 51.42629 | -3.11148 | 9475 ft | 283 kts | 280° |
| 2026-05-04 13:43 | 51.43046 | -3.14150 | 8953 ft | 276 kts | 282° |
| 2026-05-04 13:44 | 51.43833 | -3.16976 | 8433 ft | 277 kts | 299° |
| 2026-05-04 13:44 | 51.44826 | -3.19592 | 8020 ft | 271 kts | 300° |
| 2026-05-04 13:44 | 51.45794 | -3.22126 | 7634 ft | 262 kts | 299° |
| 2026-05-04 13:44 | 51.46626 | -3.24636 | 7267 ft | 257 kts | 296° |
| 2026-05-04 13:45 | 51.47424 | -3.27206 | 6899 ft | 258 kts | 295° |
| 2026-05-04 13:45 | 51.48224 | -3.29828 | 6491 ft | 257 kts | 295° |
| 2026-05-04 13:45 | 51.48978 | -3.32349 | 6077 ft | 251 kts | 295° |
| 2026-05-04 13:45 | 51.49735 | -3.34882 | 5643 ft | 246 kts | 295° |
| 2026-05-04 13:46 | 51.50459 | -3.37331 | 5237 ft | 241 kts | 294° |
| 2026-05-04 13:46 | 51.51153 | -3.39721 | 4913 ft | 235 kts | 295° |
| 2026-05-04 13:46 | 51.51846 | -3.42058 | 4702 ft | 222 kts | 295° |
| 2026-05-04 13:46 | 51.52490 | -3.44224 | 4497 ft | 216 kts | 296° |
| 2026-05-04 13:47 | 51.53112 | -3.46360 | 4287 ft | 205 kts | 295° |
| 2026-05-04 13:47 | 51.53654 | -3.48395 | 4111 ft | 190 kts | 286° |
| 2026-05-04 13:47 | 51.53543 | -3.50375 | 3898 ft | 174 kts | 241° |
| 2026-05-04 13:47 | 51.52718 | -3.51751 | 3707 ft | 173 kts | 214° |
| 2026-05-04 13:48 | 51.51662 | -3.52595 | 3509 ft | 168 kts | 194° |
| 2026-05-04 13:48 | 51.50527 | -3.52985 | 3304 ft | 166 kts | 184° |
| 2026-05-04 13:48 | 51.49382 | -3.53113 | 3101 ft | 165 kts | 181° |
| 2026-05-04 13:48 | 51.48233 | -3.53203 | 2892 ft | 165 kts | 179° |
| 2026-05-04 13:49 | 51.47093 | -3.53258 | 2703 ft | 160 kts | 172° |
| 2026-05-04 13:49 | 51.46075 | -3.52805 | 2582 ft | 145 kts | 150° |
| 2026-05-04 13:49 | 51.45306 | -3.51894 | 2453 ft | 131 kts | 131° |
| 2026-05-04 13:49 | 51.44812 | -3.50729 | 2311 ft | 124 kts | 114° |
| 2026-05-04 13:50 | 51.44433 | -3.49521 | 2174 ft | 116 kts | 114° |
| 2026-05-04 13:50 | 51.44080 | -3.48397 | 2021 ft | 112 kts | 114° |
| 2026-05-04 13:50 | 51.43733 | -3.47290 | 1872 ft | 111 kts | 115° |
| 2026-05-04 13:50 | 51.43386 | -3.46190 | 1708 ft | 110 kts | 114° |
| 2026-05-04 13:51 | 51.43365 | -3.44994 | 1446 ft | 112 kts | 66° |
| 2026-05-04 13:51 | 51.43680 | -3.43840 | 1311 ft | 113 kts | 66° |
| 2026-05-04 13:51 | 51.44016 | -3.42680 | 1227 ft | 115 kts | 66° |
| 2026-05-04 13:51 | 51.44093 | -3.41444 | 981 ft | 117 kts | 110° |
| 2026-05-04 13:52 | 51.42801 | -3.39846 | 665 ft | 126 kts | 165° |
| 2026-05-04 13:52 | 51.41919 | -3.39911 | 488 ft | 130 kts | 192° |
| 2026-05-04 13:52 | 51.41121 | -3.40598 | 280 ft | 133 kts | 227° |
| 2026-05-04 13:53 | 51.40779 | -3.41977 | 193 ft | 134 kts | 256° |
| 2026-05-04 13:53 | 51.40529 | -3.43292 | 156 ft | 106 kts | 253° |
| 2026-05-04 13:53 | 51.40414 | -3.43919 | 167 ft | 7 kts | 275° |
| 2026-05-04 13:54 | 51.40536 | -3.43980 | 171 ft | 16 kts | 353° |
| 2026-05-04 13:54 | 51.40670 | -3.43973 | 169 ft | 21 kts | 12° |
| 2026-05-04 13:54 | 51.40917 | -3.43878 | 160 ft | 12 kts | 79° |
| 2026-05-04 13:55 | 51.40911 | -3.43770 | 159 ft | 9 kts | 80° |
| 2026-05-04 13:55 | 51.40931 | -3.43704 | 160 ft | 0 kts | 53° |